createdAt,value
2019-01-18T00:02:23.386Z,99914.08
2019-01-18T00:04:51.844Z,99910.16
2019-01-18T00:07:20.330Z,99911.95
2019-01-18T00:09:48.796Z,99909.77
2019-01-18T00:12:17.281Z,99907.34
2019-01-18T00:14:45.743Z,99909.02
2019-01-18T00:17:14.227Z,99915.38
2019-01-18T00:19:42.673Z,99917.63
2019-01-18T00:22:11.187Z,99920.00
2019-01-18T00:24:39.641Z,99930.77
2019-01-18T00:27:08.123Z,99921.69
2019-01-18T00:29:36.574Z,99930.58
2019-01-18T00:32:05.220Z,99931.64
2019-01-18T00:34:33.671Z,99940.59
2019-01-18T00:37:02.145Z,99935.94
2019-01-18T00:39:30.599Z,99938.30
2019-01-18T00:41:59.075Z,99944.03
2019-01-18T00:44:27.540Z,99950.88
2019-01-18T00:46:56.022Z,99949.39
2019-01-18T00:49:24.482Z,99959.45
2019-01-18T00:51:52.967Z,99958.14
2019-01-18T00:54:21.599Z,99964.28
2019-01-18T00:56:50.066Z,99967.44
2019-01-18T00:59:18.549Z,99977.16
2019-01-18T01:01:47.031Z,99973.19
2019-01-18T01:04:15.510Z,99970.55
2019-01-18T01:06:44.020Z,99986.83
2019-01-18T01:09:12.470Z,99987.80
2019-01-18T01:11:40.924Z,99982.56
2019-01-18T01:14:09.403Z,99987.90
2019-01-18T01:16:37.858Z,99999.11
2019-01-18T01:19:06.338Z,100010.73
2019-01-18T01:21:34.805Z,100015.92
2019-01-18T01:24:03.297Z,100027.67
2019-01-18T01:26:31.742Z,100026.40
2019-01-18T01:29:00.225Z,100030.59
2019-01-18T01:31:28.697Z,100049.38
2019-01-18T01:33:57.188Z,100074.69
2019-01-18T01:36:25.655Z,100088.27
2019-01-18T01:38:54.134Z,100109.66
2019-01-18T01:41:22.599Z,100115.19
2019-01-18T01:43:51.100Z,100124.63
2019-01-18T01:46:19.559Z,100138.91
2019-01-18T01:48:48.049Z,100144.70
2019-01-18T01:51:16.502Z,100156.66
2019-01-18T01:53:44.980Z,100159.91
2019-01-18T01:56:13.431Z,100177.47
2019-01-18T01:58:41.905Z,100181.09
2019-01-18T02:01:10.431Z,100177.95
2019-01-18T02:03:38.904Z,100186.33
2019-01-18T02:06:07.362Z,100199.13
2019-01-18T02:08:35.844Z,100208.36
2019-01-18T02:11:05.173Z,100218.45
2019-01-18T02:13:33.650Z,100227.67
2019-01-18T02:16:02.103Z,100229.44
2019-01-18T02:18:30.576Z,100230.88
2019-01-18T02:20:59.028Z,100237.45
2019-01-18T02:23:27.526Z,100246.66
2019-01-18T02:25:55.983Z,100245.78
2019-01-18T02:28:24.462Z,100250.61
2019-01-18T02:30:52.969Z,100252.35
2019-01-18T02:33:21.398Z,100258.96
2019-01-18T02:35:49.861Z,100265.57
2019-01-18T02:38:18.355Z,100278.80
2019-01-18T02:40:46.809Z,100276.62
2019-01-18T02:43:15.296Z,100288.09
2019-01-18T02:45:43.743Z,100285.91
2019-01-18T02:48:12.216Z,100291.20
2019-01-18T02:50:40.684Z,100301.77
2019-01-18T02:53:09.170Z,100307.03
2019-01-18T02:55:37.627Z,100308.81
2019-01-18T02:58:06.073Z,100316.30
2019-01-18T03:00:34.557Z,100321.97
2019-01-18T03:03:03.006Z,100329.03
2019-01-18T03:05:31.558Z,100330.32
2019-01-18T03:08:00.012Z,100341.34
2019-01-18T03:10:29.833Z,100351.64
2019-01-18T03:12:58.393Z,100360.36
2019-01-18T03:15:26.945Z,100364.66
2019-01-18T03:17:55.461Z,100365.77
2019-01-18T03:20:24.123Z,100382.17
2019-01-18T03:22:52.570Z,100392.48
2019-01-18T03:25:23.388Z,100392.48
2019-01-18T03:27:51.855Z,100397.81
2019-01-18T03:30:21.311Z,100404.89
2019-01-18T03:32:50.043Z,100417.16
2019-01-18T03:35:20.573Z,100418.36
2019-01-18T03:37:49.022Z,100431.62
2019-01-18T03:40:19.548Z,100432.55
2019-01-18T03:42:48.543Z,100438.68
2019-01-18T03:45:18.783Z,100434.31
2019-01-18T03:47:47.754Z,100444.86
2019-01-18T03:50:24.479Z,100454.08
2019-01-18T03:52:53.011Z,100452.30
2019-01-18T03:55:21.769Z,100459.32
2019-01-18T03:57:50.400Z,100461.14
2019-01-18T04:00:26.142Z,100461.58
2019-01-18T04:02:54.203Z,100467.76
2019-01-18T04:05:22.866Z,100471.69
2019-01-18T04:07:51.397Z,100476.08
2019-01-18T04:10:23.753Z,100485.77
2019-01-18T04:12:52.203Z,100487.94
2019-01-18T04:15:23.406Z,100494.99
2019-01-18T04:17:51.863Z,100501.99
2019-01-18T04:20:22.214Z,100509.07
2019-01-18T04:22:51.274Z,100513.44
2019-01-18T04:25:21.469Z,100520.94
2019-01-18T04:27:49.927Z,100529.71
2019-01-18T04:30:20.998Z,100532.78
2019-01-18T04:32:49.790Z,100532.78
2019-01-18T04:35:18.500Z,100531.89
2019-01-18T04:37:47.034Z,100539.80
2019-01-18T04:40:18.452Z,100545.94
2019-01-18T04:42:47.211Z,100548.59
2019-01-18T04:45:15.700Z,100549.89
2019-01-18T04:47:44.166Z,100556.08
2019-01-18T04:50:21.284Z,100552.95
2019-01-18T04:52:49.749Z,100561.76
2019-01-18T04:55:18.229Z,100552.55
2019-01-18T04:57:46.689Z,100554.76
2019-01-18T05:00:29.838Z,100553.85
2019-01-18T05:02:58.465Z,100563.50
2019-01-18T05:05:27.281Z,100570.14
2019-01-18T05:07:55.735Z,100577.58
2019-01-18T05:10:26.461Z,100591.66
2019-01-18T05:12:54.930Z,100597.35
2019-01-18T05:15:26.123Z,100613.61
2019-01-18T05:17:54.574Z,100610.11
2019-01-18T05:20:23.219Z,100617.13
2019-01-18T05:22:51.938Z,100629.45
2019-01-18T05:25:20.600Z,100636.03
2019-01-18T05:27:49.115Z,100643.52
2019-01-18T05:30:20.377Z,100650.54
2019-01-18T05:32:48.905Z,100655.81
2019-01-18T05:35:17.926Z,100664.18
2019-01-18T05:37:46.456Z,100664.62
2019-01-18T05:40:16.852Z,100673.39
2019-01-18T05:42:45.447Z,100683.50
2019-01-18T05:45:19.049Z,100694.48
2019-01-18T05:47:47.511Z,100702.83
2019-01-18T05:50:24.529Z,100708.97
2019-01-18T05:52:52.976Z,100714.71
2019-01-18T05:55:21.493Z,100721.29
2019-01-18T05:57:50.136Z,100732.30
2019-01-18T06:00:28.850Z,100739.76
2019-01-18T06:02:57.380Z,100745.48
2019-01-18T06:05:26.205Z,100754.70
2019-01-18T06:07:54.688Z,100757.33
2019-01-18T06:10:23.162Z,100760.39
2019-01-18T06:12:51.626Z,100767.00
2019-01-18T06:15:20.096Z,100763.46
2019-01-18T06:17:48.582Z,100765.66
2019-01-18T06:20:17.880Z,100777.08
2019-01-18T06:22:46.366Z,100780.58
2019-01-18T06:25:15.091Z,100784.98
2019-01-18T06:27:43.585Z,100795.52
2019-01-18T06:30:22.283Z,100801.22
2019-01-18T06:32:50.874Z,100813.07
2019-01-18T06:35:19.473Z,100812.20
2019-01-18T06:37:47.963Z,100820.98
2019-01-18T06:40:21.853Z,100829.74
2019-01-18T06:42:50.322Z,100828.84
2019-01-18T06:45:21.845Z,100840.30
2019-01-18T06:47:50.386Z,100847.75
2019-01-18T06:50:19.997Z,100863.12
2019-01-18T06:52:48.473Z,100861.78
2019-01-18T06:55:16.999Z,100881.08
2019-01-18T06:57:45.481Z,100892.96
2019-01-18T07:00:17.309Z,100889.87
2019-01-18T07:02:45.797Z,100894.70
2019-01-18T07:05:14.310Z,100902.55
2019-01-18T07:07:42.796Z,100908.70
2019-01-18T07:10:20.683Z,100916.61
2019-01-18T07:12:47.076Z,100917.02
2019-01-18T07:15:16.463Z,100918.78
2019-01-18T07:17:45.010Z,100928.86
2019-01-18T07:20:18.635Z,100926.23
2019-01-18T07:22:47.554Z,100937.16
2019-01-18T07:25:29.659Z,100952.08
2019-01-18T07:27:58.327Z,100955.56
2019-01-18T07:30:32.091Z,100964.31
2019-01-18T07:33:00.577Z,100970.92
2019-01-18T07:35:29.300Z,100980.55
2019-01-18T07:37:57.785Z,100979.23
2019-01-18T07:40:26.283Z,100989.30
2019-01-18T07:42:54.795Z,100987.54
2019-01-18T07:45:25.891Z,100998.95
2019-01-18T07:47:54.449Z,101004.62
2019-01-18T07:50:22.922Z,101019.98
2019-01-18T07:52:51.568Z,101022.61
2019-01-18T07:55:20.208Z,101030.08
2019-01-18T07:57:48.691Z,101034.90
2019-01-18T08:00:20.230Z,101045.87
2019-01-18T08:02:48.860Z,101047.66
2019-01-18T08:05:18.083Z,101053.30
2019-01-18T08:07:46.613Z,101056.84
2019-01-18T08:10:18.144Z,101060.75
2019-01-18T08:12:46.665Z,101067.81
2019-01-18T08:15:20.435Z,101079.22
2019-01-18T08:17:48.965Z,101079.66
2019-01-18T08:20:25.384Z,101085.84
2019-01-18T08:22:54.483Z,101098.97
2019-01-18T08:25:22.964Z,101105.14
2019-01-18T08:27:51.415Z,101102.52
2019-01-18T08:30:24.962Z,101114.44
2019-01-18T08:32:53.598Z,101118.78
2019-01-18T08:35:23.215Z,101118.45
2019-01-18T08:37:51.746Z,101128.19
2019-01-18T08:40:25.840Z,101131.66
2019-01-18T08:42:54.319Z,101133.99
2019-01-18T08:45:34.878Z,101143.25
2019-01-18T08:48:03.330Z,101142.91
2019-01-18T08:50:31.814Z,101150.46
2019-01-18T08:53:00.272Z,101142.61
2019-01-18T08:55:28.754Z,101145.30
2019-01-18T08:57:57.189Z,101146.70
2019-01-18T09:00:27.717Z,101157.30
2019-01-18T09:02:56.195Z,101155.56
2019-01-18T09:05:26.314Z,101164.89
2019-01-18T09:07:55.324Z,101162.70
2019-01-18T09:10:26.934Z,101173.72
2019-01-18T09:12:55.413Z,101170.27
2019-01-18T09:15:23.891Z,101173.39
2019-01-18T09:17:52.339Z,101177.42
2019-01-18T09:20:23.503Z,101183.59
2019-01-18T09:22:52.134Z,101185.76
2019-01-18T09:25:20.752Z,101188.94
2019-01-18T09:27:49.203Z,101193.36
2019-01-18T09:30:26.410Z,101194.28
2019-01-18T09:32:55.208Z,101193.88
2019-01-18T09:35:25.223Z,101202.65
2019-01-18T09:37:54.722Z,101204.02
2019-01-18T09:40:31.478Z,101200.50
2019-01-18T09:42:59.989Z,101210.19
2019-01-18T09:45:28.478Z,101212.83
2019-01-18T09:47:57.002Z,101214.17
2019-01-18T09:50:28.197Z,101211.96
2019-01-18T09:52:57.286Z,101212.86
2019-01-18T09:55:25.764Z,101218.12
2019-01-18T09:57:54.362Z,101220.35
2019-01-18T10:00:31.154Z,101222.55
2019-01-18T10:02:59.614Z,101216.34
2019-01-18T10:05:28.433Z,101223.75
2019-01-18T10:07:56.885Z,101217.48
2019-01-18T10:10:25.368Z,101224.90
2019-01-18T10:12:53.854Z,101225.70
2019-01-18T10:15:24.954Z,101226.08
2019-01-18T10:17:53.441Z,101221.13
2019-01-18T10:20:21.930Z,101225.98
2019-01-18T10:22:51.057Z,101230.38
2019-01-18T10:25:20.006Z,101227.01
2019-01-18T10:27:48.470Z,101224.09
2019-01-18T10:30:22.104Z,101233.89
2019-01-18T10:32:50.553Z,101222.49
2019-01-18T10:35:19.275Z,101227.53
2019-01-18T10:37:47.722Z,101236.03
2019-01-18T10:40:17.428Z,101234.17
2019-01-18T10:42:47.042Z,101234.42
2019-01-18T10:45:17.264Z,101238.50
2019-01-18T10:47:46.154Z,101237.83
2019-01-18T10:50:17.001Z,101246.71
2019-01-18T10:52:46.093Z,101254.42
2019-01-18T10:55:14.564Z,101259.39
2019-01-18T10:57:43.193Z,101250.23
2019-01-18T11:00:21.969Z,101255.14
2019-01-18T11:02:51.469Z,101268.40
2019-01-18T11:05:20.898Z,101269.10
2019-01-18T11:07:49.733Z,101265.20
2019-01-18T11:10:18.408Z,101267.25
2019-01-18T11:12:47.110Z,101275.66
2019-01-18T11:15:20.995Z,101270.42
2019-01-18T11:17:49.530Z,101273.63
2019-01-18T11:20:23.635Z,101271.42
2019-01-18T11:22:53.228Z,101280.30
2019-01-18T11:25:21.699Z,101273.20
2019-01-18T11:27:50.169Z,101271.00
2019-01-18T11:30:18.633Z,101278.06
2019-01-18T11:32:47.119Z,101282.48
2019-01-18T11:35:16.042Z,101276.27
2019-01-18T11:37:44.589Z,101281.62
2019-01-18T11:40:16.121Z,101278.49
2019-01-18T11:42:44.676Z,101281.62
2019-01-18T11:45:14.047Z,101277.64
2019-01-18T11:47:42.691Z,101285.14
2019-01-18T11:50:19.242Z,101276.26
2019-01-18T11:52:47.714Z,101282.88
2019-01-18T11:55:16.175Z,101283.81
2019-01-18T11:57:44.731Z,101285.98
2019-01-18T12:00:25.025Z,101281.58
2019-01-18T12:02:53.498Z,101293.06
2019-01-18T12:05:22.198Z,101286.92
2019-01-18T12:07:50.850Z,101292.19
2019-01-18T12:10:22.019Z,101300.59
2019-01-18T12:12:50.570Z,101303.66
2019-01-18T12:15:19.021Z,101303.23
2019-01-18T12:17:47.494Z,101307.22
2019-01-18T12:20:24.904Z,101305.01
2019-01-18T12:22:53.434Z,101307.64
2019-01-18T12:25:22.042Z,101307.20
2019-01-18T12:27:50.522Z,101309.86
2019-01-18T12:30:22.025Z,101306.34
2019-01-18T12:32:50.506Z,101308.08
2019-01-18T12:35:18.960Z,101306.31
2019-01-18T12:37:47.612Z,101305.01
2019-01-18T12:40:16.076Z,101303.67
2019-01-18T12:42:44.566Z,101312.05
2019-01-18T12:45:15.669Z,101298.39
2019-01-18T12:47:44.146Z,101309.84
2019-01-18T12:50:18.506Z,101301.05
2019-01-18T12:52:46.990Z,101311.63
2019-01-18T12:55:16.399Z,101317.38
2019-01-18T12:57:45.025Z,101311.61
2019-01-18T13:00:19.781Z,101308.08
2019-01-18T13:02:48.328Z,101316.00
2019-01-18T13:05:22.336Z,101316.45
2019-01-18T13:07:50.823Z,101308.08
2019-01-18T13:10:19.302Z,101319.56
2019-01-18T13:12:47.778Z,101315.58
2019-01-18T13:15:21.767Z,101313.81
2019-01-18T13:17:50.241Z,101322.20
2019-01-18T13:20:18.714Z,101323.95
2019-01-18T13:22:47.208Z,101313.81
2019-01-18T13:25:17.704Z,101312.94
2019-01-18T13:27:46.253Z,101315.15
2019-01-18T13:30:17.143Z,101312.50
2019-01-18T13:32:46.161Z,101320.85
2019-01-18T13:35:14.762Z,101317.78
2019-01-18T13:37:43.314Z,101320.42
2019-01-18T13:40:20.435Z,101323.92
2019-01-18T13:42:48.989Z,101328.36
2019-01-18T13:45:17.570Z,101323.05
2019-01-18T13:47:47.210Z,101326.58
2019-01-18T13:50:19.703Z,101323.07
2019-01-18T13:52:48.777Z,101323.07
2019-01-18T13:55:30.925Z,101328.78
2019-01-18T13:57:59.403Z,101327.45
2019-01-18T14:00:27.849Z,101330.55
2019-01-18T14:02:56.341Z,101327.02
2019-01-18T14:05:24.769Z,101322.59
2019-01-18T14:07:53.672Z,101327.88
2019-01-18T14:10:27.756Z,101324.38
2019-01-18T14:12:56.231Z,101326.58
2019-01-18T14:15:25.709Z,101327.02
2019-01-18T14:17:54.321Z,101322.61
2019-01-18T14:20:25.016Z,101323.92
2019-01-18T14:22:53.638Z,101325.27
2019-01-18T14:25:22.255Z,101331.43
2019-01-18T14:27:50.812Z,101329.66
2019-01-18T14:30:21.957Z,101329.66
2019-01-18T14:32:55.360Z,101333.62
2019-01-18T14:35:20.617Z,101333.16
2019-01-18T14:37:50.376Z,101328.31
2019-01-18T14:40:19.364Z,101329.63
2019-01-18T14:42:52.765Z,101332.70
2019-01-18T14:45:27.259Z,101330.50
2019-01-18T14:47:55.760Z,101329.19
2019-01-18T14:50:24.208Z,101334.48
2019-01-18T14:52:52.743Z,101330.94
2019-01-18T14:55:22.697Z,101337.55
2019-01-18T14:57:51.325Z,101340.20
2019-01-18T15:00:23.215Z,101340.62
2019-01-18T15:02:51.943Z,101339.75
2019-01-18T15:05:20.548Z,101338.41
2019-01-18T15:07:48.996Z,101344.55
2019-01-18T15:10:20.397Z,101348.06
2019-01-18T15:12:51.191Z,101341.45
2019-01-18T15:15:19.674Z,101341.91
2019-01-18T15:17:49.861Z,101343.64
2019-01-18T15:20:21.389Z,101338.36
2019-01-18T15:22:49.919Z,101337.49
2019-01-18T15:25:19.940Z,101336.59
2019-01-18T15:27:48.581Z,101332.59
2019-01-18T15:30:25.913Z,101334.81
2019-01-18T15:32:54.440Z,101340.50
2019-01-18T15:35:25.789Z,101337.45
2019-01-18T15:37:54.243Z,101340.06
2019-01-18T15:40:31.872Z,101335.22
2019-01-18T15:43:01.597Z,101334.77
2019-01-18T15:45:30.219Z,101337.41
2019-01-18T15:47:58.671Z,101335.22
2019-01-18T15:50:29.687Z,101342.23
2019-01-18T15:52:58.133Z,101338.27
2019-01-18T15:55:26.888Z,101343.53
2019-01-18T15:57:55.336Z,101346.20
2019-01-18T16:00:29.316Z,101351.02
2019-01-18T16:02:57.831Z,101349.26
2019-01-18T16:05:26.309Z,101349.26
2019-01-18T16:07:54.767Z,101352.33
2019-01-18T16:10:23.314Z,101356.76
2019-01-18T16:12:51.778Z,101356.31
2019-01-18T16:15:23.683Z,101358.98
2019-01-18T16:17:52.136Z,101358.98
2019-01-18T16:20:22.964Z,101363.82
2019-01-18T16:22:51.854Z,101365.61
2019-01-18T16:25:28.572Z,101362.97
2019-01-18T16:27:57.091Z,101362.09
2019-01-18T16:30:27.003Z,101362.52
2019-01-18T16:32:57.459Z,101361.23
2019-01-18T16:35:26.080Z,101358.58
2019-01-18T16:37:54.861Z,101361.68
2019-01-18T16:40:29.125Z,101356.39
2019-01-18T16:43:00.635Z,101356.85
2019-01-18T16:45:29.129Z,101369.19
2019-01-18T16:47:57.654Z,101358.63
2019-01-18T16:50:26.121Z,101360.81
2019-01-18T16:52:54.640Z,101368.30
2019-01-18T16:55:23.113Z,101370.50
2019-01-18T16:57:51.563Z,101369.64
2019-01-18T17:00:35.066Z,101366.58
2019-01-18T17:03:03.528Z,101356.42
2019-01-18T17:05:32.008Z,101356.42
2019-01-18T17:08:00.529Z,101357.75
2019-01-18T17:10:29.020Z,101358.64
2019-01-18T17:12:57.469Z,101360.41
2019-01-18T17:15:25.945Z,101361.28
2019-01-18T17:17:54.426Z,101366.63
2019-01-18T17:20:28.612Z,101366.58
2019-01-18T17:22:57.237Z,101359.97
2019-01-18T17:25:25.784Z,101367.90
2019-01-18T17:27:54.576Z,101364.36
2019-01-18T17:30:23.665Z,101366.08
2019-01-18T17:32:52.079Z,101366.08
2019-01-18T17:35:38.926Z,101366.11
2019-01-18T17:38:33.146Z,101367.45
2019-01-18T17:41:21.152Z,101370.06
2019-01-18T17:44:09.563Z,101370.09
2019-01-18T17:46:43.751Z,101375.84
2019-01-18T17:49:39.193Z,101377.59
2019-01-18T17:52:10.718Z,101381.11
2019-01-18T17:54:42.238Z,101384.65
2019-01-18T17:57:31.116Z,101388.64
2019-01-18T18:00:31.329Z,101388.21
2019-01-18T18:03:17.726Z,101387.80
2019-01-18T18:06:01.006Z,101393.52
2019-01-18T18:08:53.153Z,101402.35
2019-01-18T18:11:27.664Z,101400.14
2019-01-18T18:14:18.936Z,101406.30
2019-01-18T18:17:04.942Z,101402.78
2019-01-18T18:19:52.909Z,101406.30
2019-01-18T18:22:41.307Z,101412.96
2019-01-18T18:25:33.803Z,101411.63
2019-01-18T18:28:07.965Z,101412.09
2019-01-18T18:30:39.479Z,101409.00
2019-01-18T18:33:23.295Z,101404.16
2019-01-18T18:36:11.504Z,101419.16
2019-01-18T18:39:10.229Z,101420.92
2019-01-18T18:41:41.748Z,101418.71
2019-01-18T18:44:28.116Z,101423.11
2019-01-18T18:47:28.481Z,101417.37
2019-01-18T18:50:19.758Z,101418.27
2019-01-18T18:52:51.300Z,101420.92
2019-01-18T18:55:31.025Z,101424.43
2019-01-18T18:58:17.149Z,101425.27
2019-01-18T19:00:48.640Z,101429.27
2019-01-18T19:03:22.787Z,101423.56
2019-01-18T19:06:12.385Z,101425.27
2019-01-18T19:08:59.170Z,101438.09
2019-01-18T19:11:48.852Z,101433.67
2019-01-18T19:14:26.172Z,101434.56
2019-01-18T19:17:06.735Z,101438.55
2019-01-18T19:19:47.233Z,101435.45
2019-01-18T19:22:18.743Z,101435.91
2019-01-18T19:25:06.753Z,101435.47
2019-01-18T19:27:53.396Z,101438.07
2019-01-18T19:30:41.789Z,101440.73
2019-01-18T19:33:16.107Z,101440.72
2019-01-18T19:36:04.121Z,101437.66
2019-01-18T19:39:03.951Z,101440.32
2019-01-18T19:41:38.004Z,101441.18
2019-01-18T19:44:21.612Z,101442.92
2019-01-18T19:46:58.659Z,101446.92
2019-01-18T19:50:03.306Z,101449.16
2019-01-18T19:53:00.623Z,101447.37
2019-01-18T19:55:37.807Z,101450.91
2019-01-18T19:58:33.622Z,101451.34
2019-01-18T20:01:37.056Z,101454.41
2019-01-18T20:04:23.427Z,101464.17
2019-01-18T20:07:06.800Z,101466.34
2019-01-18T20:09:47.612Z,101464.13
2019-01-18T20:12:40.503Z,101466.36
2019-01-18T20:15:29.764Z,101465.47
2019-01-18T20:18:26.870Z,101472.96
2019-01-18T20:21:19.253Z,101473.83
2019-01-18T20:24:03.014Z,101475.61
2019-01-18T20:26:59.519Z,101479.12
2019-01-18T20:29:49.202Z,101476.91
2019-01-18T20:32:23.455Z,101476.48
2019-01-18T20:34:58.093Z,101479.10
2019-01-18T20:37:44.615Z,101487.06
2019-01-18T20:40:22.236Z,101482.21
2019-01-18T20:43:02.470Z,101486.62
2019-01-18T20:45:42.982Z,101492.37
2019-01-18T20:48:29.745Z,101491.49
2019-01-18T20:51:01.278Z,101493.23
2019-01-18T20:53:38.750Z,101490.58
2019-01-18T20:56:19.014Z,101498.06
2019-01-18T20:58:59.697Z,101493.67
2019-01-18T21:01:52.363Z,101499.82
2019-01-18T21:04:39.033Z,101500.71
2019-01-18T21:07:10.575Z,101504.67
2019-01-18T21:09:51.152Z,101505.95
2019-01-18T21:12:28.518Z,101506.42
2019-01-18T21:15:14.332Z,101508.64
2019-01-18T21:17:48.411Z,101514.38
2019-01-18T21:20:28.953Z,101510.88
2019-01-18T21:23:06.234Z,101511.27
2019-01-18T21:25:37.773Z,101513.93
2019-01-18T21:28:11.810Z,101516.58
2019-01-18T21:31:14.538Z,101523.19
2019-01-18T21:34:04.138Z,101523.62
2019-01-18T21:36:49.985Z,101518.30
2019-01-18T21:39:42.356Z,101523.62
2019-01-18T21:42:16.751Z,101526.73
2019-01-18T21:45:00.252Z,101527.62
2019-01-18T21:47:40.998Z,101532.03
2019-01-18T21:50:30.693Z,101536.41
2019-01-18T21:53:20.558Z,101531.15
2019-01-18T21:56:10.154Z,101537.23
2019-01-18T21:58:41.671Z,101540.76
2019-01-18T22:01:31.317Z,101533.67
2019-01-18T22:04:05.592Z,101538.97
2019-01-18T22:06:52.130Z,101539.84
2019-01-18T22:09:35.237Z,101543.80
2019-01-18T22:12:22.095Z,101549.08
2019-01-18T22:15:25.576Z,101543.35
2019-01-18T22:18:13.656Z,101548.59
2019-01-18T22:21:04.703Z,101554.76
2019-01-18T22:23:36.234Z,101551.26
2019-01-18T22:26:25.756Z,101553.91
2019-01-18T22:28:59.845Z,101552.09
2019-01-18T22:31:31.356Z,101550.33
2019-01-18T22:34:02.894Z,101553.88
2019-01-18T22:36:46.175Z,101560.02
2019-01-18T22:39:34.217Z,101558.23
2019-01-18T22:42:11.663Z,101563.13
2019-01-18T22:45:04.278Z,101558.69
2019-01-18T22:48:04.757Z,101557.31
2019-01-18T22:50:44.920Z,101558.28
2019-01-18T22:53:31.254Z,101559.55
2019-01-18T22:56:14.879Z,101564.74
2019-01-18T22:59:01.496Z,101562.58
2019-01-18T23:01:38.912Z,101561.25
2019-01-18T23:04:22.233Z,101560.78
2019-01-18T23:07:13.041Z,101555.52
2019-01-18T23:09:55.932Z,101563.42
2019-01-18T23:12:51.867Z,101563.42
2019-01-18T23:15:45.857Z,101561.63
2019-01-18T23:18:26.402Z,101566.48
2019-01-18T23:21:03.612Z,101567.83
2019-01-18T23:23:37.683Z,101570.95
2019-01-18T23:26:36.521Z,101566.57
2019-01-18T23:29:10.737Z,101566.09
2019-01-18T23:31:45.166Z,101570.95
2019-01-18T23:34:19.409Z,101564.37
2019-01-18T23:36:50.920Z,101567.86
2019-01-18T23:39:46.140Z,101564.84
2019-01-18T23:42:26.633Z,101569.63
2019-01-18T23:45:14.480Z,101563.05
2019-01-18T23:48:00.991Z,101566.54
2019-01-18T23:50:38.436Z,101565.28
2019-01-18T23:53:44.403Z,101563.55
2019-01-18T23:56:23.235Z,101559.95
2019-01-18T23:58:54.741Z,101556.44
